Time;durP1;ratioP1;P1;durP2;ratioP2;P2;SDS_P1;SDS_P2;PMS_P1;PMS_P2;Temp;Humidity;BMP_temperature;BMP_pressure;BME280_temperature;BME280_humidity;BME280_pressure;Samples;Min_cycle;Max_cycle;Signal;HPM_P1;HPM_P2
2022/11/09 00:00:15;;;;;;;2.50;1.90;;;11.20;99.90;;;;;;5100583;23;20499;-70
2022/11/09 00:02:43;;;;;;;3.20;1.93;;;11.30;1.00;;;;;;4958382;28;20541;-69
2022/11/09 00:05:10;;;;;;;2.67;1.93;;;11.30;1.00;;;;;;4967955;28;20468;-70
2022/11/09 00:07:37;;;;;;;3.47;2.50;;;11.30;54.30;;;;;;4953096;28;20456;-70
2022/11/09 00:10:04;;;;;;;2.30;1.60;;;11.30;1.00;;;;;;4972302;28;20469;-70
2022/11/09 00:12:31;;;;;;;3.30;1.50;;;11.30;1.00;;;;;;4953490;28;20462;-70
2022/11/09 00:14:58;;;;;;;1.80;1.53;;;11.30;1.00;;;;;;4966746;28;20457;-70
2022/11/09 00:17:25;;;;;;;2.37;2.10;;;11.40;1.00;;;;;;4956339;28;20473;-69
2022/11/09 00:19:53;;;;;;;4.17;1.90;;;11.40;1.00;;;;;;4966298;28;20457;-70
2022/11/09 00:22:20;;;;;;;2.20;1.70;;;11.40;99.90;;;;;;4956356;28;20455;-70
2022/11/09 00:24:46;;;;;;;7.37;2.13;;;11.40;99.90;;;;;;4974705;28;20585;-70
2022/11/09 00:27:13;;;;;;;2.33;1.70;;;11.50;99.90;;;;;;4962369;28;20452;-70
2022/11/09 00:29:40;;;;;;;3.13;1.83;;;11.40;1.00;;;;;;4975185;28;20454;-69
2022/11/09 00:32:07;;;;;;;6.60;2.00;;;11.50;1.00;;;;;;4971903;28;20469;-70
2022/11/09 00:34:33;;;;;;;2.60;1.70;;;11.40;1.00;;;;;;4978220;28;20468;-69
2022/11/09 00:37:02;;;;;;;2.53;1.83;;;11.40;99.90;;;;;;4970204;28;20493;-69
2022/11/09 00:39:29;;;;;;;3.60;2.10;;;11.40;1.00;;;;;;4964652;28;20828;-69
2022/11/09 00:41:56;;;;;;;2.80;1.63;;;11.40;1.00;;;;;;4962538;28;20944;-70
2022/11/09 00:44:23;;;;;;;3.07;1.80;;;11.40;99.90;;;;;;4957491;28;20454;-70
2022/11/09 00:46:49;;;;;;;1.93;1.60;;;11.50;99.90;;;;;;4961590;28;20464;-70
2022/11/09 00:49:16;;;;;;;2.50;1.70;;;11.50;99.90;;;;;;4956819;28;20451;-69
2022/11/09 00:51:43;;;;;;;3.83;1.80;;;11.60;1.00;;;;;;4961432;28;21039;-69
2022/11/09 00:54:12;;;;;;;2.83;2.03;;;11.60;1.00;;;;;;4959827;28;20460;-69
2022/11/09 00:56:39;;;;;;;2.53;2.00;;;11.60;1.00;;;;;;4962104;28;20486;-69
2022/11/09 00:59:06;;;;;;;3.37;1.73;;;11.60;99.90;;;;;;4955857;28;20453;-70
2022/11/09 01:01:32;;;;;;;4.37;1.57;;;11.60;1.00;;;;;;4987385;28;20481;-69
2022/11/09 01:03:59;;;;;;;2.93;1.90;;;11.60;1.00;;;;;;4979861;28;20465;-70
2022/11/09 01:06:26;;;;;;;2.23;1.60;;;11.70;99.90;;;;;;4984749;28;20928;-70
2022/11/09 01:08:53;;;;;;;1.90;1.70;;;11.60;99.90;;;;;;4983791;28;20457;-71
2022/11/09 01:11:22;;;;;;;4.10;2.50;;;11.60;1.00;;;;;;4971725;28;20960;-70
2022/11/09 01:13:50;;;;;;;2.47;1.80;;;11.60;1.00;;;;;;4971549;28;20466;-70
2022/11/09 01:16:19;;;;;;;5.40;2.20;;;11.50;99.90;;;;;;4985044;28;20499;-70
2022/11/09 01:18:47;;;;;;;2.47;1.40;;;11.50;99.90;;;;;;4985181;28;20940;-70
2022/11/09 01:21:15;;;;;;;3.13;1.57;;;11.60;1.00;;;;;;4983801;28;20491;-70
2022/11/09 01:23:42;;;;;;;3.27;1.87;;;11.70;99.90;;;;;;4984312;28;20449;-70
2022/11/09 01:26:12;;;;;;;2.17;1.40;;;11.60;99.90;;;;;;4971929;28;20517;-70
2022/11/09 01:28:40;;;;;;;1.90;1.70;;;11.60;1.00;;;;;;4984755;28;20468;-70
2022/11/09 01:31:10;;;;;;;2.70;1.60;;;11.60;4.60;;;;;;4986003;28;20457;-70
2022/11/09 01:33:37;;;;;;;2.03;1.53;;;11.50;1.00;;;;;;4977244;28;20456;-70
2022/11/09 01:36:06;;;;;;;2.50;1.83;;;11.60;99.90;;;;;;4972134;28;20496;-70
2022/11/09 01:38:33;;;;;;;4.30;1.97;;;11.60;99.90;;;;;;4984452;28;20450;-69
2022/11/09 01:41:00;;;;;;;3.60;2.00;;;11.60;1.00;;;;;;4971541;28;20458;-70
2022/11/09 01:43:27;;;;;;;2.60;2.13;;;11.50;99.90;;;;;;4984389;28;20923;-69
2022/11/09 01:45:58;;;;;;;2.20;1.27;;;11.40;1.00;;;;;;4971641;28;21271;-70
2022/11/09 01:48:34;;;;;;;8.20;2.00;;;11.40;1.00;;;;;;4984832;28;20446;-70
2022/11/09 01:51:07;;;;;;;1.70;1.20;;;11.40;99.90;;;;;;4983567;28;20452;-69
2022/11/09 01:53:37;;;;;;;3.03;1.83;;;11.50;95.70;;;;;;4971378;28;20455;-69
2022/11/09 01:56:08;;;;;;;2.30;2.03;;;11.50;1.00;;;;;;4984943;28;20858;-70
2022/11/09 01:58:41;;;;;;;2.37;2.03;;;11.40;1.00;;;;;;4971245;28;20488;-70
2022/11/09 02:01:10;;;;;;;3.17;2.20;;;11.50;99.90;;;;;;4986050;28;20487;-70
2022/11/09 02:03:42;;;;;;;5.00;1.70;;;11.40;1.00;;;;;;4990129;28;20446;-70
2022/11/09 02:06:12;;;;;;;3.10;1.70;;;11.40;99.90;;;;;;4980378;28;20457;-70
2022/11/09 02:08:40;;;;;;;2.60;1.60;;;11.30;1.00;;;;;;4980511;28;20461;-70
2022/11/09 02:11:10;;;;;;;3.20;1.80;;;11.30;1.00;;;;;;4979233;28;20461;-70
2022/11/09 02:13:38;;;;;;;1.60;1.30;;;11.40;99.90;;;;;;4979247;28;20449;-69
2022/11/09 02:16:06;;;;;;;2.00;1.77;;;11.50;1.00;;;;;;4982008;28;20495;-70
2022/11/09 02:18:36;;;;;;;1.80;1.50;;;11.50;1.00;;;;;;4980960;28;20472;-70
2022/11/09 02:21:04;;;;;;;2.33;1.70;;;11.60;1.00;;;;;;4981368;28;20822;-69
2022/11/09 02:23:31;;;;;;;2.60;1.90;;;11.70;99.90;;;;;;4974466;28;20457;-69
2022/11/09 02:26:01;;;;;;;3.03;2.00;;;11.60;99.90;;;;;;4987837;28;21264;-69
2022/11/09 02:28:28;;;;;;;2.17;1.27;;;11.60;99.90;;;;;;4974575;28;20900;-69
2022/11/09 02:30:57;;;;;;;2.00;1.73;;;11.60;1.00;;;;;;4987270;28;20464;-70
2022/11/09 02:33:25;;;;;;;2.50;2.30;;;11.60;1.00;;;;;;4982897;28;20461;-69
2022/11/09 02:35:51;;;;;;;2.20;1.70;;;11.70;1.00;;;;;;4979231;28;20492;-69
2022/11/09 02:38:20;;;;;;;3.10;1.50;;;11.60;1.00;;;;;;4982904;28;20500;-70
2022/11/09 02:40:49;;;;;;;1.63;1.50;;;11.70;1.00;;;;;;4978366;28;20450;-70
2022/11/09 02:43:17;;;;;;;2.17;1.60;;;11.70;1.00;;;;;;4983849;28;20458;-71
2022/11/09 02:45:44;;;;;;;1.67;1.30;;;11.70;1.00;;;;;;4977793;28;20455;-69
2022/11/09 02:48:11;;;;;;;2.30;1.97;;;11.60;1.00;;;;;;4974929;28;20454;-69
2022/11/09 02:50:38;;;;;;;2.80;1.53;;;11.60;99.90;;;;;;4986588;28;20450;-69
2022/11/09 02:53:05;;;;;;;2.70;1.93;;;11.70;99.90;;;;;;4974857;28;20544;-69
2022/11/09 02:55:33;;;;;;;3.10;1.50;;;11.70;99.90;;;;;;4987003;28;20540;-69
2022/11/09 02:58:00;;;;;;;4.80;2.77;;;11.80;1.00;;;;;;4974759;28;20505;-70
2022/11/09 03:00:27;;;;;;;2.40;1.77;;;11.80;1.00;;;;;;4990043;28;20561;-69
2022/11/09 03:02:54;;;;;;;2.17;1.70;;;11.90;99.90;;;;;;4982897;28;20528;-69
2022/11/09 03:05:21;;;;;;;3.53;1.60;;;12.00;1.00;;;;;;4987607;28;20451;-69
2022/11/09 03:07:48;;;;;;;2.97;2.03;;;12.00;1.00;;;;;;4976807;28;20457;-69
2022/11/09 03:10:15;;;;;;;1.87;1.53;;;12.10;1.00;;;;;;4988714;28;20832;-69
2022/11/09 03:12:43;;;;;;;3.90;1.57;;;12.10;1.00;;;;;;4973773;28;20454;-69
2022/11/09 03:15:10;;;;;;;3.80;1.90;;;12.10;1.00;;;;;;4987071;28;20834;-70
2022/11/09 03:17:37;;;;;;;3.87;2.07;;;12.20;6.30;;;;;;4973631;28;20490;-70
2022/11/09 03:20:05;;;;;;;1.53;1.40;;;12.30;99.90;;;;;;4992056;28;20445;-69
2022/11/09 03:22:31;;;;;;;3.10;1.83;;;12.30;99.90;;;;;;4993042;28;20781;-69
2022/11/09 03:24:58;;;;;;;3.30;2.57;;;12.30;99.90;;;;;;4992431;28;20456;-70
2022/11/09 03:27:25;;;;;;;2.20;1.40;;;12.20;99.90;;;;;;4981402;28;20450;-70
2022/11/09 03:29:54;;;;;;;2.73;1.43;;;12.30;1.00;;;;;;4978266;28;20496;-69
2022/11/09 03:32:20;;;;;;;3.27;1.63;;;12.30;1.00;;;;;;4981118;28;20481;-69
2022/11/09 03:34:48;;;;;;;2.90;2.07;;;12.30;99.90;;;;;;4986563;28;20461;-69
2022/11/09 03:37:14;;;;;;;2.07;1.57;;;12.20;99.90;;;;;;4973824;28;20486;-70
2022/11/09 03:39:41;;;;;;;2.90;1.80;;;12.10;1.00;;;;;;4985576;28;20461;-70
2022/11/09 03:42:08;;;;;;;3.00;1.70;;;12.00;1.00;;;;;;4973524;28;20456;-70
2022/11/09 03:44:35;;;;;;;1.73;1.27;;;12.00;40.60;;;;;;4985947;28;20450;-70
2022/11/09 03:47:03;;;;;;;3.63;2.40;;;11.80;99.90;;;;;;4973505;28;20458;-70
2022/11/09 03:49:30;;;;;;;2.07;1.87;;;11.70;99.90;;;;;;4985926;28;20443;-70
2022/11/09 03:51:56;;;;;;;5.10;2.40;;;11.60;99.90;;;;;;4973750;28;20458;-69
2022/11/09 03:54:23;;;;;;;2.93;2.03;;;11.40;99.90;;;;;;4986464;28;20807;-70
2022/11/09 03:56:50;;;;;;;9.30;2.00;;;11.40;99.90;;;;;;4972718;28;20481;-70
2022/11/09 03:59:17;;;;;;;2.37;1.83;;;11.30;99.90;;;;;;4985767;28;20460;-69
2022/11/09 04:01:44;;;;;;;2.20;1.90;;;11.20;99.90;;;;;;4985439;28;20490;-69
2022/11/09 04:04:12;;;;;;;3.93;1.90;;;11.10;99.90;;;;;;4981653;28;20487;-69
2022/11/09 04:06:39;;;;;;;2.20;1.27;;;11.10;99.90;;;;;;4976934;28;20461;-69
2022/11/09 04:09:06;;;;;;;4.13;2.33;;;11.10;99.90;;;;;;4986624;28;20464;-69
2022/11/09 04:11:33;;;;;;;4.20;2.03;;;11.00;99.90;;;;;;4976566;28;20458;-69
2022/11/09 04:13:59;;;;;;;2.30;1.87;;;11.10;99.90;;;;;;4982356;28;20464;-69
2022/11/09 04:16:26;;;;;;;2.63;2.10;;;11.00;99.90;;;;;;4976754;28;20489;-70
2022/11/09 04:18:53;;;;;;;4.43;2.67;;;11.00;99.90;;;;;;4981365;28;20455;-69
2022/11/09 04:21:21;;;;;;;2.50;1.83;;;11.00;99.90;;;;;;4976736;28;20460;-69
2022/11/09 04:23:49;;;;;;;3.83;2.03;;;11.00;99.90;;;;;;4981370;28;21267;-69
2022/11/09 04:26:16;;;;;;;3.33;2.17;;;11.00;99.90;;;;;;4976241;28;20804;-69
2022/11/09 04:28:42;;;;;;;3.10;2.13;;;11.00;99.90;;;;;;4981516;28;20457;-68
2022/11/09 04:31:09;;;;;;;2.87;2.17;;;11.00;99.90;;;;;;4987647;28;20470;-69
2022/11/09 04:33:36;;;;;;;2.00;1.80;;;10.90;99.90;;;;;;4982133;28;20459;-68
2022/11/09 04:36:03;;;;;;;2.47;2.00;;;11.00;99.90;;;;;;4975527;28;20463;-69
2022/11/09 04:38:32;;;;;;;5.03;3.37;;;11.10;99.90;;;;;;4982672;28;20463;-68
2022/11/09 04:41:02;;;;;;;2.97;2.67;;;11.00;99.90;;;;;;4974738;28;20463;-68
2022/11/09 04:43:29;;;;;;;2.80;2.03;;;11.00;99.90;;;;;;4983357;28;20852;-68
2022/11/09 04:45:59;;;;;;;4.13;2.63;;;11.10;99.90;;;;;;4974450;28;20453;-68
2022/11/09 04:48:26;;;;;;;2.20;1.70;;;10.90;99.90;;;;;;4984110;28;20449;-68
2022/11/09 04:50:58;;;;;;;6.33;3.00;;;11.00;99.90;;;;;;4973326;28;20463;-68
2022/11/09 04:53:25;;;;;;;2.87;2.23;;;11.00;99.90;;;;;;4985940;28;20463;-68
2022/11/09 04:55:53;;;;;;;4.67;2.23;;;11.00;99.90;;;;;;4973530;28;21066;-68
2022/11/09 04:58:20;;;;;;;3.30;2.00;;;11.00;99.90;;;;;;4987142;28;20499;-68
2022/11/09 05:00:46;;;;;;;3.23;2.33;;;10.90;99.90;;;;;;4986566;28;20489;-69
2022/11/09 05:03:13;;;;;;;5.20;2.60;;;11.10;99.90;;;;;;4984616;28;20462;-70
2022/11/09 05:05:40;;;;;;;3.80;1.80;;;11.20;99.90;;;;;;4991661;28;20454;-68
2022/11/09 05:08:08;;;;;;;2.10;1.67;;;11.20;99.90;;;;;;4986865;28;20453;-69
2022/11/09 05:10:35;;;;;;;3.57;2.30;;;11.20;99.90;;;;;;4992414;28;20464;-68
2022/11/09 05:13:05;;;;;;;2.33;2.10;;;11.20;99.90;;;;;;4982162;28;20458;-69
2022/11/09 05:15:33;;;;;;;3.50;2.00;;;11.20;99.90;;;;;;4992071;28;20522;-68
2022/11/09 05:18:00;;;;;;;3.70;2.63;;;11.10;99.90;;;;;;4983280;28;20492;-68
2022/11/09 05:20:27;;;;;;;2.50;1.93;;;11.20;99.90;;;;;;4993051;28;20457;-69
2022/11/09 05:25:39;;;;;;;2.90;2.43;;;11.30;99.90;;;;;;4997934;28;20451;-68
2022/11/09 05:28:07;;;;;;;4.47;2.37;;;11.30;99.90;;;;;;4987678;28;20442;-68
2022/11/09 05:30:34;;;;;;;7.57;2.90;;;11.30;99.90;;;;;;4991913;28;20457;-68
2022/11/09 05:33:00;;;;;;;3.40;2.40;;;11.20;99.90;;;;;;4984760;28;20457;-68
2022/11/09 05:35:27;;;;;;;2.90;2.27;;;11.20;99.90;;;;;;4990265;28;20457;-69
2022/11/09 05:37:54;;;;;;;3.50;2.43;;;11.30;99.90;;;;;;4989439;28;20480;-68
2022/11/09 05:40:21;;;;;;;2.97;2.07;;;11.30;99.90;;;;;;4991505;28;20475;-67
2022/11/09 05:42:48;;;;;;;2.50;2.20;;;11.20;99.90;;;;;;4977430;28;20459;-68
2022/11/09 05:45:18;;;;;;;4.07;3.27;;;11.20;99.90;;;;;;4979278;28;20453;-67
2022/11/09 05:47:45;;;;;;;2.90;2.43;;;11.20;99.90;;;;;;4988730;28;20495;-68
2022/11/09 05:50:14;;;;;;;3.97;2.43;;;11.10;99.90;;;;;;4982221;28;20461;-68
2022/11/09 05:52:41;;;;;;;3.00;2.07;;;11.10;99.90;;;;;;4993723;28;20453;-69
2022/11/09 05:55:09;;;;;;;5.53;3.23;;;11.10;99.90;;;;;;4994004;28;20456;-68
2022/11/09 05:57:36;;;;;;;4.03;2.63;;;11.20;99.90;;;;;;4993810;28;20530;-67
2022/11/09 06:00:05;;;;;;;4.20;2.33;;;11.30;99.90;;;;;;4986853;28;20488;-67
2022/11/09 06:02:34;;;;;;;2.97;2.53;;;11.30;99.90;;;;;;4987233;28;20456;-67
2022/11/09 06:05:00;;;;;;;2.30;1.80;;;11.20;99.90;;;;;;4988832;28;20943;-68
2022/11/09 06:07:27;;;;;;;3.50;2.93;;;11.20;99.90;;;;;;4986016;28;20457;-68
2022/11/09 06:09:54;;;;;;;2.40;2.13;;;11.30;99.90;;;;;;4992092;28;20453;-69
2022/11/09 06:12:21;;;;;;;3.20;2.27;;;11.20;99.90;;;;;;4984643;28;20456;-70
2022/11/09 06:14:47;;;;;;;3.33;2.60;;;11.20;99.90;;;;;;4989928;28;20473;-71
2022/11/09 06:17:14;;;;;;;3.00;2.40;;;11.20;99.90;;;;;;4980716;28;20477;-68
2022/11/09 06:19:42;;;;;;;2.97;2.47;;;11.20;99.90;;;;;;4989292;28;20532;-68
2022/11/09 06:22:11;;;;;;;3.67;2.10;;;11.10;99.90;;;;;;4976717;28;20453;-69
2022/11/09 06:24:37;;;;;;;4.20;2.40;;;11.10;99.90;;;;;;4978233;28;20450;-68
2022/11/09 06:27:05;;;;;;;12.90;3.03;;;11.20;99.90;;;;;;4985114;28;20456;-68
2022/11/09 06:29:31;;;;;;;4.23;2.67;;;11.20;99.90;;;;;;4977137;28;20526;-68
2022/11/09 06:31:58;;;;;;;2.83;2.13;;;11.20;99.90;;;;;;4984520;28;20473;-68
2022/11/09 06:34:25;;;;;;;2.77;2.20;;;11.30;99.90;;;;;;4988374;28;20456;-69
2022/11/09 06:36:53;;;;;;;3.10;2.27;;;11.30;99.90;;;;;;4974952;28;20742;-68
2022/11/09 06:39:21;;;;;;;3.80;2.73;;;;;;;;;;4981222;28;20456;-68
2022/11/09 06:41:47;;;;;;;4.93;2.93;;;11.30;99.90;;;;;;4988955;28;20537;-69
2022/11/09 06:44:15;;;;;;;3.40;2.23;;;11.30;99.90;;;;;;4985891;28;20939;-68
2022/11/09 06:46:41;;;;;;;3.43;2.23;;;11.30;99.90;;;;;;4985286;28;20453;-68
2022/11/09 06:49:08;;;;;;;3.57;3.20;;;11.40;99.90;;;;;;4979242;28;20454;-68
2022/11/09 06:51:35;;;;;;;3.10;2.33;;;;;;;;;;4993991;28;20459;-68
2022/11/09 06:54:04;;;;;;;5.43;3.10;;;11.50;99.90;;;;;;4989749;28;20458;-68
2022/11/09 06:56:30;;;;;;;3.43;1.73;;;11.50;99.90;;;;;;4986619;28;20453;-68
2022/11/09 06:58:57;;;;;;;3.57;2.80;;;11.50;99.90;;;;;;4980336;28;20831;-68
2022/11/09 07:01:28;;;;;;;3.33;2.80;;;11.40;99.90;;;;;;4994063;28;20492;-68
2022/11/09 07:03:55;;;;;;;4.90;3.50;;;11.40;99.90;;;;;;4980516;28;20445;-68
2022/11/09 07:06:22;;;;;;;2.60;2.33;;;11.40;99.90;;;;;;4981717;28;20469;-68
2022/11/09 07:08:49;;;;;;;2.70;2.40;;;11.40;99.90;;;;;;4984842;28;20823;-68
2022/11/09 07:11:18;;;;;;;5.17;3.10;;;11.40;99.90;;;;;;4981755;28;20458;-69
2022/11/09 07:13:45;;;;;;;4.83;3.07;;;;;;;;;;4974277;28;20824;-69
2022/11/09 07:16:16;;;;;;;7.63;2.20;;;11.40;99.90;;;;;;4987929;28;20471;-68
2022/11/09 07:18:43;;;;;;;5.00;3.10;;;11.50;99.90;;;;;;4986659;28;20482;-68
2022/11/09 07:21:10;;;;;;;2.90;2.57;;;11.60;99.90;;;;;;4975465;28;20461;-68
2022/11/09 07:23:36;;;;;;;2.43;2.13;;;11.50;99.90;;;;;;4986521;28;20450;-68
2022/11/09 07:26:03;;;;;;;1.77;1.67;;;11.70;99.90;;;;;;4975276;28;20465;-68
2022/11/09 07:28:31;;;;;;;2.17;1.60;;;11.70;99.90;;;;;;4985830;28;20465;-67
2022/11/09 07:30:58;;;;;;;2.27;1.80;;;11.80;99.90;;;;;;4985990;28;20469;-68
2022/11/09 07:33:25;;;;;;;1.90;1.70;;;11.80;99.90;;;;;;4982169;28;20485;-68
2022/11/09 07:35:52;;;;;;;2.50;1.87;;;11.80;99.90;;;;;;4978351;28;20450;-67
2022/11/09 07:38:19;;;;;;;2.63;1.50;;;11.70;99.90;;;;;;4982187;28;20481;-69
2022/11/09 07:40:46;;;;;;;1.77;1.53;;;11.70;99.90;;;;;;4977182;28;20504;-68
2022/11/09 07:43:13;;;;;;;3.00;1.60;;;11.80;99.90;;;;;;4982288;28;20453;-68
2022/11/09 07:45:41;;;;;;;6.30;1.73;;;11.90;99.90;;;;;;4977287;28;20450;-67
2022/11/09 07:48:10;;;;;;;1.43;1.10;;;11.90;99.90;;;;;;4982995;28;20456;-67
2022/11/09 07:50:39;;;;;;;3.00;1.60;;;11.90;99.90;;;;;;4976122;28;20454;-67
2022/11/09 07:53:07;;;;;;;1.33;1.10;;;11.90;99.90;;;;;;4983443;28;20469;-68
2022/11/09 07:55:34;;;;;;;3.43;1.10;;;11.90;99.90;;;;;;4976706;28;20459;-67
2022/11/09 07:58:03;;;;;;;1.70;1.30;;;11.90;99.90;;;;;;4983750;28;20485;-67
2022/11/09 08:00:33;;;;;;;3.77;1.80;;;11.90;99.90;;;;;;4984820;28;20483;-68
2022/11/09 08:03:01;;;;;;;3.00;2.13;;;12.00;99.90;;;;;;4982235;28;20454;-67
2022/11/09 08:05:29;;;;;;;2.10;1.90;;;12.00;99.90;;;;;;4986934;28;20646;-67
2022/11/09 08:07:56;;;;;;;3.03;1.30;;;12.00;99.90;;;;;;4977542;28;20498;-68
2022/11/09 08:10:24;;;;;;;3.90;2.17;;;11.90;99.90;;;;;;4986289;28;20505;-68
2022/11/09 08:12:55;;;;;;;1.70;1.60;;;11.90;99.90;;;;;;4973427;28;20461;-68
2022/11/09 08:15:21;;;;;;;2.63;1.70;;;12.00;99.90;;;;;;4986488;28;20464;-68
2022/11/09 08:17:48;;;;;;;2.60;2.40;;;12.00;99.90;;;;;;4986333;28;20507;-67
2022/11/09 08:20:17;;;;;;;2.93;2.00;;;12.10;99.90;;;;;;4973856;28;20526;-67
2022/11/09 08:22:45;;;;;;;4.47;1.73;;;12.00;99.90;;;;;;4993525;28;20453;-67
2022/11/09 08:25:13;;;;;;;3.00;2.33;;;12.00;99.90;;;;;;4981955;28;20461;-68
2022/11/09 08:27:40;;;;;;;6.60;2.80;;;12.00;99.90;;;;;;4994557;28;20457;-69
2022/11/09 08:30:11;;;;;;;3.27;2.40;;;12.10;99.90;;;;;;4988860;28;20461;-68
2022/11/09 08:32:38;;;;;;;4.83;2.40;;;12.10;99.90;;;;;;4988388;28;20446;-67
2022/11/09 08:35:06;;;;;;;2.73;2.30;;;12.10;99.90;;;;;;4993236;28;20454;-69
2022/11/09 08:37:35;;;;;;;6.10;2.40;;;12.10;99.90;;;;;;4985246;28;20479;-68
2022/11/09 08:40:02;;;;;;;3.40;1.60;;;12.20;99.90;;;;;;4991865;28;20454;-68
2022/11/09 08:42:29;;;;;;;3.90;1.70;;;12.20;99.90;;;;;;4984173;28;20536;-68
2022/11/09 08:44:55;;;;;;;3.10;2.10;;;12.20;99.90;;;;;;4991324;28;20456;-68
2022/11/09 08:47:22;;;;;;;3.20;1.87;;;12.30;99.90;;;;;;4983135;28;20449;-68
2022/11/09 08:49:49;;;;;;;4.07;2.33;;;12.30;99.90;;;;;;4988893;28;20451;-69
2022/11/09 08:52:17;;;;;;;2.70;1.87;;;12.40;99.90;;;;;;4983030;28;20811;-69
2022/11/09 08:54:45;;;;;;;2.10;1.57;;;12.50;99.90;;;;;;4987080;28;20450;-68
2022/11/09 08:57:12;;;;;;;3.30;1.60;;;12.50;99.90;;;;;;4982441;28;20449;-69
2022/11/09 08:59:39;;;;;;;3.07;2.07;;;12.60;99.90;;;;;;4987000;28;20496;-68
2022/11/09 09:02:06;;;;;;;2.40;2.03;;;12.60;99.90;;;;;;4996039;28;20464;-68
2022/11/09 09:04:33;;;;;;;1.80;1.70;;;12.60;99.90;;;;;;4984817;28;20967;-69
2022/11/09 09:07:00;;;;;;;2.60;2.03;;;12.70;99.90;;;;;;4981099;28;20458;-68
2022/11/09 09:09:27;;;;;;;2.20;1.77;;;12.60;99.90;;;;;;4977294;28;20462;-69
2022/11/09 09:11:55;;;;;;;2.23;1.27;;;12.70;99.90;;;;;;4986491;28;20461;-69
2022/11/09 09:14:22;;;;;;;1.73;1.33;;;12.70;99.90;;;;;;4973180;28;20539;-68
2022/11/09 09:16:49;;;;;;;2.13;1.40;;;12.80;99.90;;;;;;4984938;28;20975;-68
2022/11/09 09:19:16;;;;;;;1.60;1.50;;;12.80;99.90;;;;;;4972471;28;20516;-68
2022/11/09 09:21:43;;;;;;;2.10;1.90;;;12.80;99.90;;;;;;4984554;28;20877;-68
2022/11/09 09:24:09;;;;;;;1.83;1.23;;;12.80;99.90;;;;;;4972468;28;20454;-68
2022/11/09 09:26:36;;;;;;;1.60;1.17;;;12.90;99.90;;;;;;4984722;28;20455;-68
2022/11/09 09:29:04;;;;;;;3.87;1.97;;;12.90;99.90;;;;;;4972530;28;20838;-68
2022/11/09 09:31:31;;;;;;;1.60;1.30;;;13.00;99.90;;;;;;4984935;28;20465;-68
2022/11/09 09:33:58;;;;;;;2.70;1.33;;;13.00;99.90;;;;;;4984184;28;21340;-68
2022/11/09 09:36:25;;;;;;;4.67;1.47;;;13.10;99.90;;;;;;4972328;28;20836;-68
2022/11/09 09:38:52;;;;;;;2.77;1.57;;;13.10;99.90;;;;;;4983710;28;20489;-68
2022/11/09 09:41:23;;;;;;;1.70;1.10;;;13.20;99.90;;;;;;4971922;28;20446;-68
2022/11/09 09:43:53;;;;;;;2.50;1.27;;;13.20;99.90;;;;;;4984287;28;20450;-68
2022/11/09 09:46:28;;;;;;;2.43;1.50;;;13.30;99.90;;;;;;4972057;28;20453;-68
2022/11/09 09:48:59;;;;;;;1.50;1.20;;;13.30;99.90;;;;;;4984063;28;20452;-68
2022/11/09 09:51:32;;;;;;;1.40;1.07;;;13.30;99.90;;;;;;4971749;28;20446;-68
2022/11/09 09:54:05;;;;;;;1.33;0.80;;;13.30;99.90;;;;;;4984211;28;20455;-68
2022/11/09 09:56:34;;;;;;;0.97;0.80;;;13.40;99.90;;;;;;4972281;28;20450;-68
2022/11/09 09:59:06;;;;;;;2.17;1.10;;;13.50;99.90;;;;;;4984548;28;20980;-70
2022/11/09 10:01:38;;;;;;;1.73;1.27;;;13.50;99.90;;;;;;4990007;28;20482;-68
2022/11/09 10:04:15;;;;;;;1.53;1.07;;;13.50;99.90;;;;;;4972524;28;20461;-68
2022/11/09 10:06:57;;;;;;;2.53;1.10;;;13.50;99.90;;;;;;4984535;28;20507;-68
2022/11/09 10:09:36;;;;;;;1.67;0.80;;;13.60;99.90;;;;;;4976935;28;20841;-69
2022/11/09 10:12:15;;;;;;;1.13;0.60;;;13.60;99.90;;;;;;4978806;28;20449;-68
2022/11/09 10:14:56;;;;;;;1.57;0.80;;;13.60;99.90;;;;;;4976477;28;20454;-68
2022/11/09 10:17:36;;;;;;;1.90;1.20;;;13.70;99.90;;;;;;4981784;28;20447;-69
2022/11/09 10:20:18;;;;;;;2.47;1.10;;;13.80;99.90;;;;;;4972539;28;20481;-69
2022/11/09 10:22:59;;;;;;;1.80;1.07;;;13.80;99.90;;;;;;4984710;28;20468;-70
2022/11/09 10:25:28;;;;;;;1.33;0.90;;;13.80;99.90;;;;;;4972285;28;20453;-69
2022/11/09 10:27:57;;;;;;;1.80;0.90;;;13.80;99.90;;;;;;4984557;28;20865;-69
2022/11/09 10:30:26;;;;;;;1.67;1.33;;;13.80;99.90;;;;;;4979889;28;20552;-69
2022/11/09 10:32:56;;;;;;;3.30;1.63;;;13.90;99.90;;;;;;4977139;28;20816;-69
2022/11/09 10:35:29;;;;;;;1.80;1.00;;;14.10;99.90;;;;;;4983353;28;20450;-69
2022/11/09 10:37:55;;;;;;;1.97;1.53;;;14.10;99.90;;;;;;4980566;28;20458;-69
2022/11/09 10:40:26;;;;;;;2.40;1.37;;;14.10;99.90;;;;;;4981342;28;20445;-69
2022/11/09 10:42:55;;;;;;;1.00;0.90;;;;;;;;;;4974415;28;20450;-69
2022/11/09 10:45:29;;;;;;;1.17;1.00;;;14.20;99.90;;;;;;4976186;28;20447;-69
2022/11/09 10:47:58;;;;;;;1.43;1.03;;;14.50;99.90;;;;;;4985045;28;20456;-70
2022/11/09 10:50:33;;;;;;;3.50;1.93;;;14.40;99.90;;;;;;4976978;28;20457;-69
2022/11/09 10:53:14;;;;;;;2.83;1.73;;;14.50;99.90;;;;;;4983812;28;20454;-69
2022/11/09 10:55:51;;;;;;;1.40;1.13;;;14.50;99.90;;;;;;4979626;28;20843;-69
2022/11/09 10:58:26;;;;;;;1.30;1.10;;;14.60;99.90;;;;;;4980523;28;20797;-69
2022/11/09 11:01:00;;;;;;;2.07;1.23;;;14.60;99.90;;;;;;4986314;28;20479;-69
2022/11/09 11:03:29;;;;;;;8.13;1.60;;;14.70;99.90;;;;;;4992322;28;20442;-69
2022/11/09 11:05:58;;;;;;;2.13;1.20;;;14.80;99.90;;;;;;4974325;28;20967;-69
2022/11/09 11:08:31;;;;;;;2.50;1.10;;;14.80;99.90;;;;;;4982319;28;20474;-69
2022/11/09 11:11:26;;;;;;;1.50;1.10;;;14.90;99.90;;;;;;4984380;28;20948;-71
2022/11/09 11:14:14;;;;;;;2.17;1.30;;;14.80;99.90;;;;;;4969295;28;20489;-69
2022/11/09 11:16:42;;;;;;;2.23;1.40;;;14.90;99.90;;;;;;4978257;28;20467;-71
2022/11/09 11:19:34;;;;;;;1.73;1.27;;;15.10;99.90;;;;;;4982769;28;20501;-71
2022/11/09 11:22:22;;;;;;;1.50;1.13;;;15.20;99.90;;;;;;4974903;28;20477;-68
2022/11/09 11:24:55;;;;;;;1.40;0.93;;;15.20;99.90;;;;;;4978174;28;20454;-69
2022/11/09 11:27:27;;;;;;;1.40;1.00;;;15.20;99.90;;;;;;4982506;28;20988;-69
2022/11/09 11:29:59;;;;;;;2.43;1.40;;;15.10;99.90;;;;;;4978921;28;20464;-69
2022/11/09 11:32:26;;;;;;;1.50;1.20;;;15.20;99.90;;;;;;4980400;28;20457;-68
2022/11/09 11:34:54;;;;;;;2.07;1.73;;;15.10;99.90;;;;;;4986168;28;20454;-69
2022/11/09 11:37:40;;;;;;;4.90;1.53;;;15.20;99.90;;;;;;4974414;28;20520;-70
2022/11/09 11:40:15;;;;;;;2.33;1.27;;;15.20;99.90;;;;;;4983752;28;20486;-69
2022/11/09 11:43:05;;;;;;;2.33;1.40;;;15.30;99.90;;;;;;4977453;28;20455;-69
2022/11/09 11:45:39;;;;;;;2.70;1.33;;;15.30;99.90;;;;;;4978535;28;20443;-70
2022/11/09 11:48:41;;;;;;;3.50;1.70;;;15.20;99.90;;;;;;4981340;28;20445;-69
2022/11/09 11:51:13;;;;;;;2.07;1.00;;;15.30;91.80;;;;;;4949677;28;20462;-70
2022/11/09 11:53:58;;;;;;;2.30;1.30;;;15.30;99.90;;;;;;4973310;28;20456;-69
2022/11/09 11:56:31;;;;;;;1.33;1.00;;;15.30;82.70;;;;;;4983243;28;20450;-70
2022/11/09 11:59:21;;;;;;;2.07;1.10;;;15.40;95.00;;;;;;4976422;28;20477;-70
2022/11/09 12:02:02;;;;;;;1.73;1.40;;;15.40;1.00;;;;;;4985655;28;20477;-71
2022/11/09 12:04:42;;;;;;;1.33;1.07;;;15.30;1.00;;;;;;4984408;28;20449;-70
2022/11/09 12:07:25;;;;;;;1.10;1.00;;;15.20;1.00;;;;;;4974135;28;20453;-70
2022/11/09 12:10:09;;;;;;;2.30;1.30;;;15.30;7.70;;;;;;4974146;28;20775;-69
2022/11/09 12:12:47;;;;;;;1.50;0.90;;;15.30;5.80;;;;;;4982457;28;20458;-69
2022/11/09 12:15:42;;;;;;;1.80;1.20;;;15.30;76.90;;;;;;4986516;28;20449;-70
2022/11/09 12:18:19;;;;;;;2.33;1.20;;;15.40;18.20;;;;;;4986365;28;20450;-70
2022/11/09 12:20:53;;;;;;;1.50;1.20;;;15.30;84.80;;;;;;4973165;28;20477;-70
2022/11/09 12:23:46;;;;;;;1.50;1.10;;;15.30;47.70;;;;;;4986534;28;20462;-70
2022/11/09 12:26:22;;;;;;;1.80;1.50;;;15.40;12.20;;;;;;4975856;28;20451;-70
2022/11/09 12:29:01;;;;;;;3.07;1.33;;;15.40;1.00;;;;;;4981633;28;20533;-70
2022/11/09 12:31:37;;;;;;;3.23;1.30;;;15.50;1.00;;;;;;4984814;28;20454;-70
2022/11/09 12:34:20;;;;;;;0.93;0.80;;;15.60;1.00;;;;;;4986157;28;20457;-69
2022/11/09 12:36:52;;;;;;;2.37;0.83;;;15.60;1.00;;;;;;4972330;28;20446;-69
2022/11/09 12:39:26;;;;;;;2.40;1.20;;;15.60;1.00;;;;;;4985628;28;20477;-70
2022/11/09 12:41:58;;;;;;;1.60;1.20;;;15.60;1.00;;;;;;4972858;28;20451;-70
2022/11/09 12:44:29;;;;;;;1.67;1.30;;;15.70;1.00;;;;;;4986190;28;20458;-70
2022/11/09 12:47:02;;;;;;;2.83;1.20;;;15.70;1.00;;;;;;4972237;28;20997;-70
2022/11/09 12:49:36;;;;;;;1.70;1.10;;;15.80;1.00;;;;;;4972969;28;20450;-70
2022/11/09 12:52:04;;;;;;;1.20;0.97;;;15.80;1.00;;;;;;4974898;28;20450;-70
2022/11/09 12:54:33;;;;;;;1.90;1.30;;;15.90;1.00;;;;;;4983973;28;20454;-70
2022/11/09 12:57:05;;;;;;;1.70;1.20;;;16.00;1.00;;;;;;4985898;28;20477;-70
2022/11/09 12:59:37;;;;;;;2.93;1.27;;;16.00;1.00;;;;;;4982503;28;20477;-70
2022/11/09 13:02:05;;;;;;;1.20;1.10;;;15.90;1.00;;;;;;4991871;28;20793;-69
2022/11/09 13:04:32;;;;;;;1.90;1.10;;;16.00;1.00;;;;;;4981805;28;20454;-70